createdAt,value
2019-02-02T00:00:29.910Z,99.99
2019-02-02T00:01:29.893Z,99.99
2019-02-02T00:02:29.629Z,99.99
2019-02-02T00:03:29.888Z,99.99
2019-02-02T00:04:29.883Z,99.99
2019-02-02T00:05:29.852Z,99.99
2019-02-02T00:06:29.846Z,99.99
2019-02-02T00:07:29.588Z,99.99
2019-02-02T00:08:29.834Z,99.99
2019-02-02T00:09:29.827Z,99.99
2019-02-02T00:10:29.794Z,99.99
2019-02-02T00:11:29.800Z,99.99
2019-02-02T00:12:29.802Z,99.99
2019-02-02T00:13:29.524Z,99.99
2019-02-02T00:14:29.788Z,99.99
2019-02-02T00:15:29.501Z,99.99
2019-02-02T00:16:29.753Z,99.99
2019-02-02T00:17:29.743Z,99.99
2019-02-02T00:18:29.478Z,99.99
2019-02-02T00:19:29.476Z,99.99
2019-02-02T00:20:29.708Z,99.99
2019-02-02T00:21:29.716Z,99.99
2019-02-02T00:22:29.724Z,99.99
2019-02-02T00:23:29.681Z,99.99
2019-02-02T00:24:29.412Z,99.99
2019-02-02T00:25:29.755Z,99.99
2019-02-02T00:26:29.647Z,99.99
2019-02-02T00:27:40.763Z,99.99
2019-02-02T00:28:29.375Z,99.99
2019-02-02T00:29:29.617Z,99.99
2019-02-02T00:30:29.624Z,99.99
2019-02-02T00:31:29.359Z,99.99
2019-02-02T00:32:29.585Z,99.99
2019-02-02T00:33:29.352Z,99.99
2019-02-02T00:34:29.319Z,99.99
2019-02-02T00:35:29.310Z,99.99
2019-02-02T00:36:29.544Z,99.99
2019-02-02T00:37:29.539Z,99.99
2019-02-02T00:38:29.526Z,99.99
2019-02-02T00:39:29.523Z,99.99
2019-02-02T00:40:29.504Z,99.99
2019-02-02T00:41:29.251Z,99.99
2019-02-02T00:42:29.490Z,99.99
2019-02-02T00:43:29.476Z,99.99
2019-02-02T00:44:29.228Z,99.99
2019-02-02T00:45:29.460Z,99.99
2019-02-02T00:46:29.454Z,99.99
2019-02-02T00:47:29.187Z,99.99
2019-02-02T00:48:29.423Z,99.99
2019-02-02T00:49:29.229Z,99.99
2019-02-02T00:50:29.416Z,99.99
2019-02-02T00:51:29.398Z,99.99
2019-02-02T00:52:29.428Z,99.99
2019-02-02T00:53:29.144Z,99.99
2019-02-02T00:54:29.118Z,99.99
2019-02-02T00:55:29.368Z,99.99
2019-02-02T00:56:29.360Z,99.99
2019-02-02T00:57:29.344Z,99.99
2019-02-02T00:58:29.106Z,99.99
2019-02-02T00:59:29.330Z,99.99
2019-02-02T01:00:29.070Z,99.99
2019-02-02T01:01:29.306Z,99.99
2019-02-02T01:02:29.185Z,99.99
2019-02-02T01:03:29.288Z,99.99
2019-02-02T01:04:29.057Z,99.99
2019-02-02T01:05:29.016Z,99.99
2019-02-02T01:06:29.005Z,99.99
2019-02-02T01:07:29.001Z,99.99
2019-02-02T01:08:29.001Z,99.99
2019-02-02T01:09:29.001Z,99.99
2019-02-02T01:10:29.225Z,99.99
2019-02-02T01:11:29.295Z,99.99
2019-02-02T01:12:29.217Z,99.99
2019-02-02T01:13:29.189Z,99.99
2019-02-02T01:14:28.927Z,99.99
2019-02-02T01:15:29.171Z,99.99
2019-02-02T01:16:28.913Z,99.99
2019-02-02T01:17:29.155Z,99.99
2019-02-02T01:18:29.203Z,99.99
2019-02-02T01:19:29.142Z,99.99
2019-02-02T01:20:29.117Z,99.99
2019-02-02T01:21:28.882Z,99.99
2019-02-02T01:22:29.113Z,99.99
2019-02-02T01:23:29.211Z,99.99
2019-02-02T01:24:28.846Z,99.99
2019-02-02T01:25:29.091Z,99.99
2019-02-02T01:26:29.069Z,99.99
2019-02-02T01:27:29.054Z,99.99
2019-02-02T01:28:29.079Z,99.99
2019-02-02T01:29:28.798Z,99.99
2019-02-02T01:30:29.046Z,99.99
2019-02-02T01:31:28.769Z,99.99
2019-02-02T01:32:28.760Z,99.99
2019-02-02T01:33:28.999Z,99.99
2019-02-02T01:34:28.990Z,99.99
2019-02-02T01:35:28.732Z,99.99
2019-02-02T01:36:28.963Z,99.99
2019-02-02T01:37:28.957Z,99.99
2019-02-02T01:38:28.954Z,99.99
2019-02-02T01:39:28.942Z,99.99
2019-02-02T01:40:28.677Z,99.99
2019-02-02T01:41:28.933Z,99.99
2019-02-02T01:42:28.932Z,99.99
2019-02-02T01:43:28.902Z,99.99
2019-02-02T01:44:28.895Z,99.99
2019-02-02T01:45:28.884Z,99.99
2019-02-02T01:46:28.625Z,99.99
2019-02-02T01:47:28.865Z,99.99
2019-02-02T01:48:28.602Z,99.99
2019-02-02T01:49:28.593Z,99.99
2019-02-02T01:50:28.679Z,99.99
2019-02-02T01:51:28.813Z,99.99
2019-02-02T01:52:28.806Z,99.99
2019-02-02T01:53:28.812Z,99.99
2019-02-02T01:54:28.790Z,99.99
2019-02-02T01:55:28.540Z,99.99
2019-02-02T01:56:28.522Z,99.99
2019-02-02T01:57:28.769Z,99.99
2019-02-02T01:58:28.755Z,99.99
2019-02-02T01:59:28.737Z,99.99
2019-02-02T02:00:28.483Z,99.99
2019-02-02T02:01:28.725Z,99.99
2019-02-02T02:02:28.713Z,99.99
2019-02-02T02:03:28.457Z,99.99
2019-02-02T02:04:28.694Z,99.99
2019-02-02T02:05:28.683Z,99.99
2019-02-02T02:06:28.667Z,99.99
2019-02-02T02:07:28.429Z,99.99
2019-02-02T02:08:28.645Z,99.99
2019-02-02T02:09:28.388Z,99.99
2019-02-02T02:10:28.624Z,99.99
2019-02-02T02:11:28.371Z,99.99
2019-02-02T02:12:28.605Z,99.99
2019-02-02T02:13:28.596Z,99.99
2019-02-02T02:14:28.339Z,99.99
2019-02-02T02:15:28.340Z,99.99
2019-02-02T02:16:28.571Z,99.99
2019-02-02T02:17:28.557Z,99.99
2019-02-02T02:18:28.548Z,99.99
2019-02-02T02:19:28.299Z,99.99
2019-02-02T02:20:28.273Z,99.99
2019-02-02T02:21:28.523Z,99.99
2019-02-02T02:22:28.522Z,99.99
2019-02-02T02:23:28.496Z,99.99
2019-02-02T02:24:28.498Z,99.99
2019-02-02T02:25:28.481Z,99.99
2019-02-02T02:26:28.477Z,99.99
2019-02-02T02:27:28.206Z,99.99
2019-02-02T02:28:30.780Z,99.99
2019-02-02T02:29:28.447Z,99.99
2019-02-02T02:30:28.427Z,99.99
2019-02-02T02:31:28.415Z,99.99
2019-02-02T02:32:28.412Z,99.99
2019-02-02T02:33:28.392Z,99.99
2019-02-02T02:34:28.416Z,99.99
2019-02-02T02:35:28.391Z,99.99
2019-02-02T02:36:28.370Z,99.99
2019-02-02T02:37:28.361Z,99.99
2019-02-02T02:38:28.098Z,99.99
2019-02-02T02:39:28.375Z,99.99
2019-02-02T02:40:28.323Z,99.99
2019-02-02T02:41:28.312Z,99.99
2019-02-02T02:42:28.305Z,99.99
2019-02-02T02:43:28.354Z,99.99
2019-02-02T02:44:28.283Z,99.99
2019-02-02T02:45:28.285Z,99.99
2019-02-02T02:46:28.295Z,99.99
2019-02-02T02:47:28.066Z,99.99
2019-02-02T02:48:27.996Z,99.99
2019-02-02T02:49:28.017Z,99.99
2019-02-02T02:50:28.222Z,99.99
2019-02-02T02:51:28.213Z,99.99
2019-02-02T02:52:28.200Z,99.99
2019-02-02T02:53:27.936Z,99.99
2019-02-02T02:54:27.940Z,99.99
2019-02-02T02:55:28.174Z,99.99
2019-02-02T02:56:28.312Z,99.99
2019-02-02T02:57:27.938Z,99.99
2019-02-02T02:58:40.365Z,99.99
2019-02-02T02:59:27.887Z,99.99
2019-02-02T03:00:28.140Z,99.99
2019-02-02T03:01:28.105Z,99.99
2019-02-02T03:02:28.103Z,99.99
2019-02-02T03:03:28.094Z,99.99
2019-02-02T03:04:28.129Z,99.99
2019-02-02T03:05:28.084Z,99.99
2019-02-02T03:06:28.058Z,99.99
2019-02-02T03:07:28.043Z,99.99
2019-02-02T03:08:28.053Z,99.99
2019-02-02T03:09:28.036Z,99.99
2019-02-02T03:10:28.036Z,99.99
2019-02-02T03:11:28.030Z,99.99
2019-02-02T03:12:27.992Z,99.99
2019-02-02T03:13:28.006Z,99.99
2019-02-02T03:14:27.986Z,99.99
2019-02-02T03:15:27.732Z,99.99
2019-02-02T03:16:27.950Z,99.99
2019-02-02T03:17:27.958Z,99.99
2019-02-02T03:18:27.947Z,99.99
2019-02-02T03:19:27.928Z,99.99
2019-02-02T03:20:27.918Z,99.99
2019-02-02T03:21:27.667Z,99.99
2019-02-02T03:22:27.644Z,99.99
2019-02-02T03:23:27.636Z,99.99
2019-02-02T03:24:27.872Z,99.99
2019-02-02T03:25:28.038Z,99.99
2019-02-02T03:26:27.604Z,99.99
2019-02-02T03:27:27.857Z,99.99
2019-02-02T03:28:27.823Z,99.99
2019-02-02T03:29:27.561Z,99.99
2019-02-02T03:30:27.914Z,99.99
2019-02-02T03:31:27.797Z,99.99
2019-02-02T03:32:27.785Z,99.99
2019-02-02T03:33:27.779Z,99.99
2019-02-02T03:34:27.787Z,99.99
2019-02-02T03:35:27.745Z,99.99
2019-02-02T03:36:27.738Z,99.99
2019-02-02T03:37:27.808Z,99.99
2019-02-02T03:38:27.712Z,99.99
2019-02-02T03:39:27.453Z,99.99
2019-02-02T03:40:27.709Z,99.99
2019-02-02T03:41:27.677Z,99.99
2019-02-02T03:42:27.672Z,99.99
2019-02-02T03:43:27.420Z,99.99
2019-02-02T03:44:27.668Z,99.99
2019-02-02T03:45:27.391Z,99.99
2019-02-02T03:46:27.622Z,99.99
2019-02-02T03:47:27.623Z,99.99
2019-02-02T03:48:27.620Z,99.99
2019-02-02T03:49:27.363Z,99.99
2019-02-02T03:50:27.587Z,99.99
2019-02-02T03:51:27.325Z,99.99
2019-02-02T03:52:27.566Z,99.99
2019-02-02T03:53:27.558Z,99.99
2019-02-02T03:54:27.294Z,99.99
2019-02-02T03:55:27.541Z,99.99
2019-02-02T03:56:27.530Z,99.99
2019-02-02T03:57:27.532Z,99.99
2019-02-02T03:58:27.251Z,99.99
2019-02-02T03:59:27.282Z,99.99
2019-02-02T04:00:27.240Z,99.99
2019-02-02T04:01:29.941Z,99.99
2019-02-02T04:02:27.208Z,99.99
2019-02-02T04:03:27.441Z,99.99
2019-02-02T04:04:27.471Z,99.99
2019-02-02T04:05:27.428Z,99.99
2019-02-02T04:06:27.408Z,99.99
2019-02-02T04:07:27.420Z,99.99
2019-02-02T04:08:27.138Z,99.99
2019-02-02T04:09:27.181Z,99.99
2019-02-02T04:10:27.381Z,99.99
2019-02-02T04:11:27.105Z,99.99
2019-02-02T04:12:27.351Z,99.99
2019-02-02T04:13:27.087Z,99.99
2019-02-02T04:14:27.331Z,99.99
2019-02-02T04:15:27.085Z,99.99
2019-02-02T04:16:27.293Z,99.99
2019-02-02T04:17:27.140Z,99.99
2019-02-02T04:18:27.268Z,99.99
2019-02-02T04:19:27.010Z,99.99
2019-02-02T04:20:27.259Z,99.99
2019-02-02T04:21:27.235Z,99.99
2019-02-02T04:22:27.237Z,99.99
2019-02-02T04:23:27.213Z,99.99
2019-02-02T04:24:27.225Z,99.99
2019-02-02T04:25:26.950Z,99.99
2019-02-02T04:26:27.191Z,99.99
2019-02-02T04:27:27.170Z,99.99
2019-02-02T04:28:26.922Z,99.99
2019-02-02T04:29:27.160Z,99.99
2019-02-02T04:30:26.892Z,99.99
2019-02-02T04:31:27.129Z,99.99
2019-02-02T04:32:27.119Z,99.99
2019-02-02T04:33:26.867Z,99.99
2019-02-02T04:34:27.095Z,99.99
2019-02-02T04:35:27.104Z,99.99
2019-02-02T04:36:27.071Z,99.99
2019-02-02T04:37:27.066Z,99.99
2019-02-02T04:38:27.055Z,99.99
2019-02-02T04:39:27.041Z,99.99
2019-02-02T04:40:27.025Z,99.99
2019-02-02T04:41:27.016Z,99.99
2019-02-02T04:42:27.007Z,99.99
2019-02-02T04:43:26.748Z,99.99
2019-02-02T04:44:26.748Z,99.99
2019-02-02T04:45:26.982Z,99.99
2019-02-02T04:46:26.966Z,99.99
2019-02-02T04:47:26.712Z,99.99
2019-02-02T04:48:26.944Z,99.99
2019-02-02T04:49:26.946Z,99.99
2019-02-02T04:50:26.918Z,99.99
2019-02-02T04:51:26.658Z,99.99
2019-02-02T04:52:26.664Z,99.99
2019-02-02T04:53:26.890Z,99.99
2019-02-02T04:54:26.875Z,99.99
2019-02-02T04:55:26.615Z,99.99
2019-02-02T04:56:26.611Z,99.99
2019-02-02T04:57:26.853Z,99.99
2019-02-02T04:58:26.853Z,99.99
2019-02-02T04:59:31.676Z,99.99
2019-02-02T05:00:26.944Z,99.99
2019-02-02T05:01:26.810Z,99.99
2019-02-02T05:02:26.798Z,99.99
2019-02-02T05:03:26.785Z,99.99
2019-02-02T05:04:26.776Z,99.99
2019-02-02T05:05:26.642Z,99.99
2019-02-02T05:06:26.879Z,99.99
2019-02-02T05:07:26.495Z,99.99
2019-02-02T05:08:26.761Z,99.99
2019-02-02T05:09:26.719Z,99.99
2019-02-02T05:10:26.724Z,99.99
2019-02-02T05:11:26.454Z,99.99
2019-02-02T05:12:26.448Z,99.99
2019-02-02T05:13:26.676Z,99.99
2019-02-02T05:14:26.667Z,99.99
2019-02-02T05:15:26.648Z,99.99
2019-02-02T05:16:26.397Z,99.99
2019-02-02T05:17:26.649Z,99.99
2019-02-02T05:18:26.623Z,99.99
2019-02-02T05:19:26.615Z,99.99
2019-02-02T05:20:26.603Z,99.99
2019-02-02T05:21:26.609Z,99.99
2019-02-02T05:22:26.337Z,99.99
2019-02-02T05:23:26.596Z,99.99
2019-02-02T05:24:26.563Z,99.99
2019-02-02T05:25:26.574Z,99.99
2019-02-02T05:26:26.549Z,99.99
2019-02-02T05:27:26.549Z,99.99
2019-02-02T05:28:26.519Z,99.99
2019-02-02T05:29:26.264Z,99.99
2019-02-02T05:30:26.260Z,99.99
2019-02-02T05:31:26.248Z,99.99
2019-02-02T05:32:26.234Z,99.99
2019-02-02T05:33:26.227Z,99.99
2019-02-02T05:34:26.474Z,99.99
2019-02-02T05:35:26.467Z,99.99
2019-02-02T05:36:26.443Z,99.99
2019-02-02T05:37:26.455Z,99.99
2019-02-02T05:38:26.423Z,99.99
2019-02-02T05:39:26.163Z,99.99
2019-02-02T05:40:26.167Z,99.99
2019-02-02T05:41:26.150Z,99.99
2019-02-02T05:42:26.384Z,99.99
2019-02-02T05:43:26.381Z,99.99
2019-02-02T05:44:26.359Z,99.99
2019-02-02T05:45:26.363Z,99.99
2019-02-02T05:46:26.343Z,99.99
2019-02-02T05:47:26.329Z,99.99
2019-02-02T05:48:26.318Z,99.99
2019-02-02T05:49:26.062Z,99.99
2019-02-02T05:50:26.303Z,99.99
2019-02-02T05:51:26.047Z,99.99
2019-02-02T05:52:26.300Z,99.99
2019-02-02T05:53:26.287Z,99.99
2019-02-02T05:54:26.270Z,99.99
2019-02-02T05:55:26.267Z,99.99
2019-02-02T05:56:26.564Z,99.99
2019-02-02T05:57:25.993Z,99.99
2019-02-02T05:58:26.236Z,99.99
2019-02-02T05:59:26.208Z,99.99
2019-02-02T06:00:26.214Z,99.99
2019-02-02T06:01:26.188Z,99.99
2019-02-02T06:02:26.182Z,99.99
2019-02-02T06:03:26.171Z,99.99
2019-02-02T06:04:26.169Z,99.99
2019-02-02T06:05:25.908Z,99.99
2019-02-02T06:06:26.147Z,99.99
2019-02-02T06:07:26.128Z,99.99
2019-02-02T06:08:26.126Z,99.99
2019-02-02T06:09:26.111Z,99.99
2019-02-02T06:10:25.856Z,99.99
2019-02-02T06:11:26.094Z,99.99
2019-02-02T06:12:26.080Z,99.99
2019-02-02T06:13:26.071Z,99.99
2019-02-02T06:14:26.061Z,99.99
2019-02-02T06:15:28.418Z,99.99
2019-02-02T06:16:26.039Z,99.99
2019-02-02T06:17:26.025Z,99.99
2019-02-02T06:18:26.020Z,99.99
2019-02-02T06:19:26.007Z,99.99
2019-02-02T06:20:26.007Z,99.99
2019-02-02T06:21:25.997Z,99.99
2019-02-02T06:22:25.982Z,99.99
2019-02-02T06:23:25.726Z,99.99
2019-02-02T06:24:25.969Z,99.99
2019-02-02T06:25:25.952Z,99.99
2019-02-02T06:26:25.939Z,99.99
2019-02-02T06:27:25.953Z,99.99
2019-02-02T06:28:25.668Z,99.99
2019-02-02T06:29:25.906Z,99.99
2019-02-02T06:30:25.912Z,99.99
2019-02-02T06:31:25.886Z,99.99
2019-02-02T06:32:25.893Z,99.99
2019-02-02T06:33:25.884Z,99.99
2019-02-02T06:34:25.611Z,99.99
2019-02-02T06:35:25.599Z,99.99
2019-02-02T06:36:25.839Z,99.99
2019-02-02T06:37:25.825Z,99.99
2019-02-02T06:38:25.576Z,99.99
2019-02-02T06:39:25.809Z,99.99
2019-02-02T06:40:25.549Z,99.99
2019-02-02T06:41:25.546Z,99.99
2019-02-02T06:42:25.779Z,99.99
2019-02-02T06:43:25.520Z,99.99
2019-02-02T06:44:25.755Z,99.99
2019-02-02T06:45:25.753Z,99.99
2019-02-02T06:46:25.835Z,99.99
2019-02-02T06:47:25.724Z,99.99
2019-02-02T06:48:25.720Z,99.99
2019-02-02T06:49:25.722Z,99.99
2019-02-02T06:50:25.697Z,99.99
2019-02-02T06:51:25.678Z,99.99
2019-02-02T06:52:25.748Z,99.99
2019-02-02T06:53:25.661Z,99.99
2019-02-02T06:54:25.650Z,99.99
2019-02-02T06:55:25.392Z,99.99
2019-02-02T06:56:25.634Z,99.99
2019-02-02T06:57:25.622Z,99.99
2019-02-02T06:58:25.626Z,99.99
2019-02-02T06:59:25.601Z,99.99
2019-02-02T07:00:28.706Z,99.99
2019-02-02T07:01:25.590Z,99.99
2019-02-02T07:02:25.593Z,99.99
2019-02-02T07:03:25.560Z,99.99
2019-02-02T07:04:25.558Z,99.99
2019-02-02T07:05:25.552Z,99.99
2019-02-02T07:06:25.532Z,99.99
2019-02-02T07:07:25.300Z,99.99
2019-02-02T07:08:25.531Z,99.99
2019-02-02T07:09:25.249Z,99.99
2019-02-02T07:10:25.491Z,99.99
2019-02-02T07:11:25.242Z,99.99
2019-02-02T07:12:25.218Z,99.99
2019-02-02T07:13:25.468Z,99.99
2019-02-02T07:14:25.219Z,99.99
2019-02-02T07:15:25.194Z,99.99
2019-02-02T07:16:25.421Z,99.99
2019-02-02T07:17:25.415Z,99.99
2019-02-02T07:18:25.413Z,99.99
2019-02-02T07:19:25.390Z,99.99
2019-02-02T07:20:25.134Z,99.99
2019-02-02T07:21:25.374Z,99.99
2019-02-02T07:22:25.366Z,99.99
2019-02-02T07:23:25.360Z,99.99
2019-02-02T07:24:25.105Z,99.99
2019-02-02T07:25:25.103Z,99.99
2019-02-02T07:26:25.323Z,99.99
2019-02-02T07:27:25.446Z,99.99
2019-02-02T07:28:25.308Z,99.99
2019-02-02T07:29:25.286Z,99.99
2019-02-02T07:30:31.410Z,99.99
2019-02-02T07:31:25.260Z,99.99
2019-02-02T07:32:25.014Z,99.99
2019-02-02T07:33:25.244Z,99.99
2019-02-02T07:34:25.238Z,99.99
2019-02-02T07:35:24.984Z,99.99
2019-02-02T07:36:25.334Z,99.99
2019-02-02T07:37:24.965Z,99.99
2019-02-02T07:38:24.971Z,99.99
2019-02-02T07:39:24.939Z,99.99
2019-02-02T07:40:25.175Z,99.99
2019-02-02T07:41:25.172Z,99.99
2019-02-02T07:42:24.894Z,99.99
2019-02-02T07:43:25.140Z,99.99
2019-02-02T07:44:25.153Z,99.99
2019-02-02T07:45:24.871Z,99.99
2019-02-02T07:46:24.865Z,99.99
2019-02-02T07:47:25.117Z,99.99
2019-02-02T07:48:25.119Z,99.99
2019-02-02T07:49:24.840Z,99.99
2019-02-02T07:50:25.089Z,99.99
2019-02-02T07:51:25.068Z,99.99
2019-02-02T07:52:25.056Z,99.99
2019-02-02T07:53:25.057Z,99.99
2019-02-02T07:54:25.036Z,99.99
2019-02-02T07:55:25.136Z,99.99
2019-02-02T07:56:25.089Z,99.99
2019-02-02T07:57:25.129Z,99.99
2019-02-02T07:58:24.734Z,99.99
2019-02-02T07:59:24.981Z,99.99
2019-02-02T08:00:24.727Z,99.99
2019-02-02T08:01:24.956Z,99.99
2019-02-02T08:02:24.943Z,99.99
2019-02-02T08:03:24.688Z,99.99
2019-02-02T08:04:24.938Z,99.99
2019-02-02T08:05:24.928Z,99.99
2019-02-02T08:06:24.915Z,99.99
2019-02-02T08:07:24.892Z,99.99
2019-02-02T08:08:24.879Z,99.99
2019-02-02T08:09:24.870Z,99.99
2019-02-02T08:10:24.868Z,99.99
2019-02-02T08:11:24.856Z,99.99
2019-02-02T08:12:24.853Z,99.99
2019-02-02T08:13:24.832Z,99.99
2019-02-02T08:14:24.583Z,99.99
2019-02-02T08:15:24.566Z,99.99
2019-02-02T08:16:24.798Z,99.99
2019-02-02T08:17:24.800Z,99.99
2019-02-02T08:18:24.532Z,99.99
2019-02-02T08:19:27.738Z,99.99
2019-02-02T08:20:24.525Z,99.99
2019-02-02T08:21:24.746Z,99.99
2019-02-02T08:22:24.753Z,99.99
2019-02-02T08:23:24.739Z,99.99
2019-02-02T08:24:24.723Z,99.99
2019-02-02T08:25:24.474Z,99.99
2019-02-02T08:26:24.446Z,99.99
2019-02-02T08:27:24.690Z,99.99
2019-02-02T08:28:24.431Z,99.99
2019-02-02T08:29:24.663Z,99.99
2019-02-02T08:30:24.667Z,99.99
2019-02-02T08:31:24.402Z,99.99
2019-02-02T08:32:24.641Z,99.99
2019-02-02T08:33:24.383Z,99.99
2019-02-02T08:34:24.617Z,99.99
2019-02-02T08:35:24.372Z,99.99
2019-02-02T08:36:24.474Z,99.99
2019-02-02T08:37:24.609Z,99.99
2019-02-02T08:38:24.584Z,99.99
2019-02-02T08:39:31.542Z,99.99
2019-02-02T08:40:24.570Z,99.99
2019-02-02T08:41:24.551Z,99.99
2019-02-02T08:42:24.540Z,99.99
2019-02-02T08:43:24.528Z,99.99
2019-02-02T08:44:24.280Z,99.99
2019-02-02T08:45:24.508Z,99.99
2019-02-02T08:46:24.252Z,99.99
2019-02-02T08:47:24.245Z,99.99
2019-02-02T08:48:24.247Z,99.99
2019-02-02T08:49:24.230Z,99.99
2019-02-02T08:50:24.470Z,99.99
2019-02-02T08:51:24.471Z,99.99
2019-02-02T08:52:24.450Z,99.99
2019-02-02T08:53:24.551Z,99.99
2019-02-02T08:54:24.430Z,99.99
2019-02-02T08:55:24.259Z,99.99
2019-02-02T08:56:24.470Z,99.99
2019-02-02T08:57:24.261Z,99.99
2019-02-02T08:58:24.472Z,99.99
2019-02-02T08:59:24.123Z,99.99
2019-02-02T09:00:24.366Z,99.99
2019-02-02T09:01:24.357Z,99.99
2019-02-02T09:02:24.350Z,99.99
2019-02-02T09:03:24.525Z,99.99
2019-02-02T09:04:24.104Z,99.99
2019-02-02T09:05:24.341Z,99.99
2019-02-02T09:06:24.586Z,99.99
2019-02-02T09:07:24.306Z,99.99
2019-02-02T09:08:24.091Z,99.99
2019-02-02T09:09:24.305Z,99.99
2019-02-02T09:10:24.268Z,99.99
2019-02-02T09:11:24.020Z,99.99
2019-02-02T09:12:24.306Z,99.99
2019-02-02T09:13:24.003Z,99.99
2019-02-02T09:14:24.349Z,99.99
2019-02-02T09:15:24.224Z,99.99
2019-02-02T09:16:24.232Z,99.99
2019-02-02T09:17:24.206Z,99.99
2019-02-02T09:18:24.204Z,99.99
2019-02-02T09:19:24.191Z,99.99
2019-02-02T09:20:23.934Z,99.99
2019-02-02T09:21:24.179Z,99.99
2019-02-02T09:22:23.909Z,99.99
2019-02-02T09:23:24.147Z,99.99
2019-02-02T09:24:24.139Z,99.99
2019-02-02T09:25:24.141Z,99.99
2019-02-02T09:26:24.130Z,99.99
2019-02-02T09:27:23.864Z,99.99
2019-02-02T09:28:24.132Z,99.99
2019-02-02T09:29:24.094Z,99.99
2019-02-02T09:30:24.107Z,99.99
2019-02-02T09:31:24.073Z,99.99
2019-02-02T09:32:23.822Z,99.99
2019-02-02T09:33:24.053Z,99.99
2019-02-02T09:34:24.066Z,99.99
2019-02-02T09:35:24.153Z,99.99
2019-02-02T09:36:23.782Z,99.99
2019-02-02T09:37:24.025Z,99.99
2019-02-02T09:38:23.762Z,99.99
2019-02-02T09:39:24.007Z,99.99
2019-02-02T09:40:25.560Z,99.99
2019-02-02T09:41:23.742Z,99.99
2019-02-02T09:42:23.978Z,99.99
2019-02-02T09:43:23.718Z,99.99
2019-02-02T09:44:23.706Z,99.99
2019-02-02T09:45:23.970Z,99.99
2019-02-02T09:46:23.946Z,99.99
2019-02-02T09:47:23.948Z,99.99
2019-02-02T09:48:23.929Z,99.99
2019-02-02T09:49:23.921Z,99.99
2019-02-02T09:50:23.659Z,99.99
2019-02-02T09:51:23.901Z,99.99
2019-02-02T09:52:23.649Z,99.99
2019-02-02T09:53:26.588Z,99.99
2019-02-02T09:54:29.257Z,99.99
2019-02-02T09:55:23.644Z,99.99
2019-02-02T09:56:23.619Z,99.99
2019-02-02T09:57:23.633Z,99.99
2019-02-02T09:58:23.867Z,99.99
2019-02-02T09:59:23.849Z,99.99
2019-02-02T10:00:23.844Z,99.99
2019-02-02T10:01:30.463Z,99.99
2019-02-02T10:02:26.801Z,99.99
2019-02-02T10:03:23.554Z,99.99
2019-02-02T10:04:23.799Z,99.99
2019-02-02T10:05:23.556Z,99.99
2019-02-02T10:06:23.550Z,99.99
2019-02-02T10:07:23.785Z,99.99
2019-02-02T10:08:23.523Z,99.99
2019-02-02T10:09:23.755Z,99.99
2019-02-02T10:10:23.509Z,99.99
2019-02-02T10:11:23.741Z,99.99
2019-02-02T10:12:23.733Z,99.99
2019-02-02T10:13:23.485Z,99.99
2019-02-02T10:14:23.468Z,99.99
2019-02-02T10:15:23.702Z,99.99
2019-02-02T10:16:23.699Z,99.99
2019-02-02T10:17:23.694Z,99.99
2019-02-02T10:18:23.690Z,99.99
2019-02-02T10:19:23.427Z,99.99
2019-02-02T10:20:23.669Z,99.99
2019-02-02T10:21:23.666Z,99.99
2019-02-02T10:22:23.410Z,99.99
2019-02-02T10:23:23.403Z,99.99
2019-02-02T10:24:23.646Z,99.99
2019-02-02T10:25:23.393Z,99.99
2019-02-02T10:26:23.638Z,99.99
2019-02-02T10:27:23.379Z,99.99
2019-02-02T10:28:23.370Z,99.99
2019-02-02T10:29:23.357Z,99.99
2019-02-02T10:30:25.104Z,99.99
2019-02-02T10:31:23.614Z,99.99
2019-02-02T10:32:23.608Z,99.99
2019-02-02T10:33:23.580Z,99.99
2019-02-02T10:34:23.332Z,99.99
2019-02-02T10:35:23.316Z,99.99
2019-02-02T10:36:23.552Z,99.99
2019-02-02T10:37:23.549Z,99.99
2019-02-02T10:38:23.544Z,99.99
2019-02-02T10:39:23.334Z,99.99
2019-02-02T10:40:23.519Z,99.99
2019-02-02T10:41:23.519Z,99.99
2019-02-02T10:42:23.266Z,99.99
2019-02-02T10:43:23.511Z,99.99
2019-02-02T10:44:23.260Z,99.99
2019-02-02T10:45:23.555Z,99.99
2019-02-02T10:46:23.491Z,99.99
2019-02-02T10:47:23.482Z,99.99
2019-02-02T10:48:23.469Z,99.99
2019-02-02T10:49:23.213Z,99.99
2019-02-02T10:50:23.460Z,99.99
2019-02-02T10:51:25.398Z,99.99
2019-02-02T10:52:23.442Z,99.99
2019-02-02T10:53:23.437Z,99.99
2019-02-02T10:54:23.739Z,99.99
2019-02-02T10:55:23.432Z,99.99
2019-02-02T10:56:23.415Z,99.99
2019-02-02T10:57:23.407Z,99.99
2019-02-02T10:58:23.408Z,99.99
2019-02-02T10:59:23.388Z,99.99
2019-02-02T11:00:23.387Z,99.99
2019-02-02T11:01:23.374Z,99.99
2019-02-02T11:02:23.379Z,99.99
2019-02-02T11:03:23.383Z,99.99
2019-02-02T11:04:23.185Z,99.99
2019-02-02T11:05:23.457Z,99.99
2019-02-02T11:06:23.597Z,99.99
2019-02-02T11:07:23.245Z,99.99
2019-02-02T11:08:23.394Z,99.99
2019-02-02T11:09:23.552Z,99.99
2019-02-02T11:10:23.067Z,99.99
2019-02-02T11:11:23.567Z,99.99
2019-02-02T11:12:23.539Z,99.99
2019-02-02T11:13:23.134Z,99.99
2019-02-02T11:14:23.406Z,99.99
2019-02-02T11:15:23.480Z,99.99
2019-02-02T11:16:23.371Z,99.99
2019-02-02T11:17:23.394Z,99.99
2019-02-02T11:18:23.183Z,99.99
2019-02-02T11:19:23.110Z,99.99
2019-02-02T11:20:23.381Z,99.99
2019-02-02T11:21:23.333Z,99.99
2019-02-02T11:22:23.292Z,99.99
2019-02-02T11:23:23.427Z,99.99
2019-02-02T11:24:23.490Z,99.99
2019-02-02T11:25:23.346Z,99.99
2019-02-02T11:26:23.362Z,99.99
2019-02-02T11:27:23.283Z,99.99
2019-02-02T11:28:23.359Z,99.99
2019-02-02T11:29:23.198Z,99.99
2019-02-02T11:30:23.267Z,99.99
2019-02-02T11:31:23.176Z,99.99
2019-02-02T11:32:22.927Z,99.99
2019-02-02T11:33:23.194Z,99.99
2019-02-02T11:34:22.913Z,99.99
2019-02-02T11:35:23.160Z,99.99
2019-02-02T11:36:23.152Z,99.99
2019-02-02T11:37:23.310Z,99.99
2019-02-02T11:38:23.145Z,99.99
2019-02-02T11:39:22.897Z,99.99
2019-02-02T11:40:23.200Z,99.99
2019-02-02T11:41:23.146Z,99.99
2019-02-02T11:42:23.130Z,99.99
2019-02-02T11:43:23.103Z,99.99
2019-02-02T11:44:23.103Z,99.99
2019-02-02T11:45:22.846Z,99.99
2019-02-02T11:46:23.093Z,99.99
2019-02-02T11:47:23.080Z,99.99
2019-02-02T11:48:23.067Z,99.99
2019-02-02T11:49:26.336Z,99.99
2019-02-02T11:50:23.060Z,99.99
2019-02-02T11:51:22.808Z,99.99
2019-02-02T11:52:25.811Z,99.99
2019-02-02T11:53:22.787Z,99.99
2019-02-02T11:54:23.044Z,99.99
2019-02-02T11:55:23.032Z,99.99
2019-02-02T11:56:23.027Z,99.99
2019-02-02T11:57:23.031Z,99.99
2019-02-02T11:58:22.772Z,99.99
2019-02-02T11:59:23.135Z,99.99
2019-02-02T12:00:22.746Z,99.99
2019-02-02T12:01:22.997Z,99.99
2019-02-02T12:02:22.993Z,99.99
2019-02-02T12:03:22.984Z,99.99
2019-02-02T12:04:22.974Z,99.99
2019-02-02T12:05:22.977Z,99.6
2019-02-02T12:06:22.969Z,99.02
2019-02-02T12:07:22.963Z,99.22
2019-02-02T12:08:22.962Z,98.17
2019-02-02T12:09:22.704Z,96.94
2019-02-02T12:10:22.996Z,96.94
2019-02-02T12:11:22.940Z,97.41
2019-02-02T12:12:22.710Z,96.51
2019-02-02T12:13:22.937Z,96.41
2019-02-02T12:14:22.920Z,95.79
2019-02-02T12:15:22.678Z,95.46
2019-02-02T12:16:22.970Z,96.22
2019-02-02T12:17:22.657Z,96.26
2019-02-02T12:18:22.911Z,96.55
2019-02-02T12:19:22.652Z,96.84
2019-02-02T12:20:22.893Z,97.22
2019-02-02T12:21:22.886Z,95.79
2019-02-02T12:22:22.879Z,95.6
2019-02-02T12:23:22.901Z,95.32
2019-02-02T12:24:22.878Z,95.41
2019-02-02T12:25:22.875Z,95.41
2019-02-02T12:26:22.873Z,96.26
2019-02-02T12:27:22.926Z,95.98
2019-02-02T12:28:22.861Z,95.36
2019-02-02T12:29:22.861Z,94.79
2019-02-02T12:30:22.848Z,95.17
2019-02-02T12:31:22.836Z,95.65
2019-02-02T12:32:29.330Z,94.79
2019-02-02T12:33:25.617Z,94.98
2019-02-02T12:34:22.833Z,93.94
2019-02-02T12:35:22.901Z,94.22
2019-02-02T12:36:22.828Z,94.03
2019-02-02T12:37:22.827Z,93.74
2019-02-02T12:38:22.812Z,93.65
2019-02-02T12:39:22.562Z,93.74
2019-02-02T12:40:22.618Z,93.74
2019-02-02T12:41:22.823Z,94.22
2019-02-02T12:42:22.813Z,94.51
2019-02-02T12:43:22.908Z,94.51
2019-02-02T12:44:22.809Z,95.17
2019-02-02T12:45:22.783Z,95.56
2019-02-02T12:46:22.779Z,95.56
2019-02-02T12:47:23.374Z,95.56
2019-02-02T12:48:22.787Z,96.41
2019-02-02T12:49:22.766Z,95.75
2019-02-02T12:50:22.778Z,95.65
2019-02-02T12:51:22.762Z,95.56
2019-02-02T12:52:25.360Z,94.6